createdAt,value
2022-10-01T00:00:23.873Z,2.97
2022-10-01T00:02:50.390Z,2.90
2022-10-01T00:05:17.207Z,2.20
2022-10-01T00:07:44.863Z,2.83
2022-10-01T00:10:13.334Z,2.87
2022-10-01T00:12:44.727Z,2.50
2022-10-01T00:15:13.588Z,2.57
2022-10-01T00:17:40.545Z,2.80
2022-10-01T00:20:13.988Z,2.90
2022-10-01T00:22:41.058Z,2.87
2022-10-01T00:25:08.061Z,2.33
2022-10-01T00:27:36.860Z,2.70
2022-10-01T00:30:06.997Z,2.80
2022-10-01T00:32:33.506Z,2.40
2022-10-01T00:35:00.141Z,2.37
2022-10-01T00:37:26.845Z,2.13
2022-10-01T00:39:53.359Z,2.20
2022-10-01T00:42:24.763Z,2.83
2022-10-01T00:44:51.730Z,2.63
2022-10-01T00:47:25.965Z,2.77
2022-10-01T00:49:59.345Z,2.50
2022-10-01T00:52:30.579Z,2.40
2022-10-01T00:55:00.813Z,2.80
2022-10-01T00:57:27.555Z,2.40
2022-10-01T00:59:57.036Z,2.47
2022-10-01T01:02:24.954Z,2.37
2022-10-01T01:04:51.506Z,2.43
2022-10-01T01:07:18.401Z,2.37
2022-10-01T01:09:47.381Z,2.50
2022-10-01T01:12:26.215Z,2.50
2022-10-01T01:15:02.510Z,2.73
2022-10-01T01:17:35.064Z,2.70
2022-10-01T01:20:34.710Z,2.60
2022-10-01T01:23:13.175Z,2.60
2022-10-01T01:25:46.149Z,2.93
2022-10-01T01:28:21.356Z,2.70
2022-10-01T01:30:49.262Z,2.27
2022-10-01T01:33:18.131Z,2.80
2022-10-01T01:35:48.504Z,2.50
2022-10-01T01:38:20.910Z,2.43
2022-10-01T01:40:49.587Z,2.57
2022-10-01T01:43:21.999Z,2.23
2022-10-01T01:45:50.562Z,2.30
2022-10-01T01:48:17.133Z,2.63
2022-10-01T01:50:47.412Z,3.00
2022-10-01T01:53:13.945Z,2.53
2022-10-01T01:55:40.940Z,2.53
2022-10-01T01:58:07.866Z,2.20
2022-10-01T02:00:35.702Z,2.50
2022-10-01T02:03:02.418Z,2.43
2022-10-01T02:05:37.123Z,2.10
2022-10-01T02:08:18.126Z,2.90
2022-10-01T02:11:00.918Z,2.47
2022-10-01T02:13:37.201Z,2.90
2022-10-01T02:16:13.132Z,2.23
2022-10-01T02:18:48.691Z,2.50
2022-10-01T02:21:20.006Z,2.20
2022-10-01T02:23:52.479Z,2.30
2022-10-01T02:26:21.578Z,2.30
2022-10-01T02:28:50.778Z,2.47
2022-10-01T02:31:19.686Z,2.60
2022-10-01T02:33:46.890Z,2.57
2022-10-01T02:36:16.004Z,2.20
2022-10-01T02:38:45.447Z,2.40
2022-10-01T02:41:16.630Z,2.30
2022-10-01T02:43:48.512Z,2.70
2022-10-01T02:46:20.998Z,2.43
2022-10-01T02:48:47.824Z,2.70
2022-10-01T02:51:28.676Z,2.40
2022-10-01T02:53:58.969Z,2.43
2022-10-01T02:56:26.925Z,2.50
2022-10-01T02:58:53.375Z,2.67
2022-10-01T03:01:21.311Z,2.40
2022-10-01T03:03:47.851Z,2.20
2022-10-01T03:06:14.368Z,2.50
2022-10-01T03:08:40.843Z,2.50
2022-10-01T03:11:07.343Z,2.20
2022-10-01T03:13:33.849Z,2.27
2022-10-01T03:16:00.642Z,2.13
2022-10-01T03:18:28.497Z,2.43
2022-10-01T03:20:54.965Z,2.20
2022-10-01T03:23:21.407Z,2.17
2022-10-01T03:25:47.865Z,2.70
2022-10-01T03:28:14.384Z,2.20
2022-10-01T03:30:40.924Z,1.80
2022-10-01T03:33:07.384Z,2.37
2022-10-01T03:35:35.202Z,2.00
2022-10-01T03:38:01.684Z,2.07
2022-10-01T03:40:28.197Z,1.90
2022-10-01T03:42:54.852Z,2.00
2022-10-01T03:45:21.353Z,1.93
2022-10-01T03:47:51.738Z,2.00
2022-10-01T03:50:18.214Z,1.73
2022-10-01T03:52:46.083Z,1.80
2022-10-01T03:55:12.540Z,1.73
2022-10-01T03:57:39.069Z,1.60
2022-10-01T04:00:06.264Z,1.87
2022-10-01T04:02:32.870Z,2.10
2022-10-01T04:04:59.489Z,1.77
2022-10-01T04:07:25.993Z,1.70
2022-10-01T04:09:53.796Z,2.00
2022-10-01T04:12:20.330Z,1.50
2022-10-01T04:14:46.815Z,1.77
2022-10-01T04:17:13.276Z,1.70
2022-10-01T04:19:39.781Z,1.60
2022-10-01T04:22:06.289Z,1.50
2022-10-01T04:24:32.772Z,1.63
2022-10-01T04:27:00.636Z,1.50
2022-10-01T04:29:27.116Z,1.33
2022-10-01T04:31:53.630Z,1.60
2022-10-01T04:34:20.198Z,1.60
2022-10-01T04:36:46.680Z,1.60
2022-10-01T04:39:13.350Z,1.83
2022-10-01T04:41:39.827Z,1.80
2022-10-01T04:44:07.714Z,1.60
2022-10-01T04:46:34.236Z,1.93
2022-10-01T04:49:00.770Z,2.00
2022-10-01T04:51:27.245Z,1.90
2022-10-01T04:53:53.791Z,1.80
2022-10-01T04:56:20.333Z,1.70
2022-10-01T04:58:46.869Z,1.83
2022-10-01T05:01:14.755Z,2.50
2022-10-01T05:03:41.540Z,1.60
2022-10-01T05:06:08.039Z,1.80
2022-10-01T05:08:34.532Z,1.70
2022-10-01T05:11:01.033Z,1.30
2022-10-01T05:13:27.520Z,1.60
2022-10-01T05:15:54.016Z,1.83
2022-10-01T05:18:21.886Z,1.40
2022-10-01T05:20:48.335Z,1.30
2022-10-01T05:23:14.799Z,1.30
2022-10-01T05:25:41.281Z,1.20
2022-10-01T05:28:07.808Z,1.20
2022-10-01T05:30:34.727Z,1.20
2022-10-01T05:33:04.203Z,1.10
2022-10-01T05:35:32.322Z,1.30
2022-10-01T05:38:00.597Z,1.07
2022-10-01T05:40:27.898Z,1.30
2022-10-01T05:42:55.837Z,1.60
2022-10-01T05:45:23.107Z,1.30
2022-10-01T05:47:56.173Z,1.30
2022-10-01T05:50:22.655Z,1.30
2022-10-01T05:52:50.614Z,1.30
2022-10-01T05:55:17.112Z,1.03
2022-10-01T05:57:43.620Z,1.13
2022-10-01T06:00:11.494Z,1.00
2022-10-01T06:02:38.066Z,1.23
2022-10-01T06:05:05.254Z,1.53
2022-10-01T06:07:31.950Z,1.20
2022-10-01T06:09:59.781Z,1.13
2022-10-01T06:12:26.244Z,1.33
2022-10-01T06:14:52.710Z,1.20
2022-10-01T06:17:19.188Z,1.37
2022-10-01T06:19:45.675Z,1.50
2022-10-01T06:22:12.134Z,1.30
2022-10-01T06:24:38.591Z,1.30
2022-10-01T06:27:06.434Z,1.50
2022-10-01T06:29:32.885Z,1.30
2022-10-01T06:31:59.424Z,1.40
2022-10-01T06:34:25.956Z,1.20
2022-10-01T06:36:52.423Z,1.67
2022-10-01T06:39:18.901Z,1.33
2022-10-01T06:41:47.282Z,1.70
2022-10-01T06:44:15.101Z,1.30
2022-10-01T06:46:41.582Z,1.47
2022-10-01T06:49:08.227Z,1.37
2022-10-01T06:51:34.937Z,1.33
2022-10-01T06:54:01.689Z,1.27
2022-10-01T06:56:28.130Z,1.60
2022-10-01T06:58:54.606Z,1.40
2022-10-01T07:01:22.452Z,1.20
2022-10-01T07:03:48.955Z,1.40
2022-10-01T07:06:15.414Z,1.50
2022-10-01T07:08:41.884Z,1.43
2022-10-01T07:11:08.399Z,1.53
2022-10-01T07:13:34.903Z,1.20
2022-10-01T07:16:03.029Z,1.80
2022-10-01T07:18:30.889Z,1.50
2022-10-01T07:20:57.485Z,1.43
2022-10-01T07:23:23.968Z,1.40
2022-10-01T07:25:50.791Z,1.37
2022-10-01T07:28:20.323Z,1.40
2022-10-01T07:30:56.680Z,1.40
2022-10-01T07:33:23.206Z,1.50
2022-10-01T07:35:51.120Z,1.40
2022-10-01T07:38:17.663Z,1.20
2022-10-01T07:40:44.150Z,1.20
2022-10-01T07:43:10.647Z,1.07
2022-10-01T07:45:37.184Z,0.90
2022-10-01T07:48:03.881Z,1.33
2022-10-01T07:50:30.379Z,1.40
2022-10-01T07:52:59.513Z,1.10
2022-10-01T07:55:29.146Z,1.43
2022-10-01T07:57:57.345Z,1.43
2022-10-01T08:00:25.630Z,1.27
2022-10-01T08:02:53.954Z,1.27
2022-10-01T08:05:21.705Z,2.83
2022-10-01T08:07:49.163Z,2.20
2022-10-01T08:10:18.958Z,1.30
2022-10-01T08:12:45.793Z,1.87
2022-10-01T08:15:13.373Z,1.10
2022-10-01T08:17:39.935Z,1.10
2022-10-01T08:20:08.904Z,1.40
2022-10-01T08:22:39.787Z,1.20
2022-10-01T08:25:08.420Z,1.30
2022-10-01T08:27:36.741Z,1.43
2022-10-01T08:30:04.193Z,1.20
2022-10-01T08:32:30.796Z,1.37
2022-10-01T08:34:57.287Z,1.43
2022-10-01T08:37:25.307Z,1.20
2022-10-01T08:39:51.805Z,1.10
2022-10-01T08:42:31.889Z,1.00
2022-10-01T08:45:01.435Z,1.00
2022-10-01T08:47:32.160Z,1.10
2022-10-01T08:50:02.772Z,1.00
2022-10-01T08:52:31.882Z,0.60
2022-10-01T08:55:01.958Z,0.90
2022-10-01T08:57:30.669Z,0.70
2022-10-01T09:00:01.974Z,0.97
2022-10-01T09:02:31.050Z,1.40
2022-10-01T09:05:01.808Z,1.60
2022-10-01T09:07:41.778Z,1.10
2022-10-01T09:10:26.114Z,0.90
2022-10-01T09:13:18.464Z,0.80
2022-10-01T09:15:50.979Z,0.80
2022-10-01T09:18:28.684Z,0.70
2022-10-01T09:20:58.149Z,0.80
2022-10-01T09:23:27.720Z,0.80
2022-10-01T09:25:54.834Z,0.80
2022-10-01T09:28:23.455Z,0.77
2022-10-01T09:30:55.532Z,0.90
2022-10-01T09:33:24.076Z,2.50
2022-10-01T09:35:55.254Z,1.80
2022-10-01T09:38:26.898Z,2.23
2022-10-01T09:40:54.696Z,2.57
2022-10-01T09:43:22.309Z,2.00
2022-10-01T09:45:49.581Z,1.60
2022-10-01T09:48:25.362Z,1.20
2022-10-01T09:50:55.778Z,0.70
2022-10-01T09:53:28.617Z,0.83
2022-10-01T09:55:59.816Z,0.57
2022-10-01T09:58:28.700Z,0.80
2022-10-01T10:00:55.631Z,0.70
2022-10-01T10:03:25.607Z,0.70
2022-10-01T10:05:52.683Z,0.60
2022-10-01T10:08:26.118Z,0.80
2022-10-01T10:10:58.002Z,0.60
2022-10-01T10:13:29.748Z,0.60
2022-10-01T10:15:57.695Z,0.70
2022-10-01T10:18:29.428Z,0.80
2022-10-01T10:20:56.966Z,0.80
2022-10-01T10:23:24.914Z,2.13
2022-10-01T10:25:55.414Z,6.13
2022-10-01T10:28:23.912Z,3.40
2022-10-01T10:30:52.532Z,1.67
2022-10-01T10:33:20.375Z,1.87
2022-10-01T10:35:56.786Z,1.57
2022-10-01T10:38:29.426Z,1.20
2022-10-01T10:40:56.115Z,1.10
2022-10-01T10:43:25.018Z,1.17
2022-10-01T10:45:52.472Z,1.60
2022-10-01T10:48:19.214Z,2.00
2022-10-01T10:50:47.677Z,1.43
2022-10-01T10:53:18.557Z,1.23
2022-10-01T10:55:53.987Z,1.73
2022-10-01T10:58:24.961Z,1.43
2022-10-01T11:00:53.100Z,1.50
2022-10-01T11:03:22.439Z,1.50
2022-10-01T11:05:50.657Z,1.20
2022-10-01T11:08:21.295Z,1.03
2022-10-01T11:10:58.251Z,0.93
2022-10-01T11:13:44.581Z,0.83
2022-10-01T11:16:29.410Z,0.60
2022-10-01T11:19:04.939Z,0.67
2022-10-01T11:21:47.293Z,0.60
2022-10-01T11:24:44.985Z,0.67
2022-10-01T11:27:21.708Z,0.60
2022-10-01T11:29:57.551Z,0.80
2022-10-01T11:32:33.454Z,0.50
2022-10-01T11:35:19.817Z,0.60
2022-10-01T11:38:13.307Z,0.50
2022-10-01T11:40:42.442Z,0.70
2022-10-01T11:43:24.489Z,0.53
2022-10-01T11:45:56.738Z,0.57
2022-10-01T11:48:31.030Z,0.60
2022-10-01T11:51:01.905Z,0.50
2022-10-01T11:53:33.512Z,0.87
2022-10-01T11:56:04.628Z,0.60
2022-10-01T11:58:36.768Z,0.60
2022-10-01T12:01:10.541Z,0.60
2022-10-01T12:03:48.324Z,0.60
2022-10-01T12:06:15.980Z,0.60
2022-10-01T12:08:50.296Z,0.70
2022-10-01T12:11:21.281Z,0.70
2022-10-01T12:13:53.396Z,0.63
2022-10-01T12:16:33.741Z,0.73
2022-10-01T12:19:03.116Z,0.60
2022-10-01T12:21:35.057Z,0.70
2022-10-01T12:24:10.369Z,0.90
2022-10-01T12:26:47.045Z,0.70
2022-10-01T12:29:22.456Z,0.80
2022-10-01T12:31:58.226Z,0.63
2022-10-01T12:34:39.058Z,0.90
2022-10-01T12:37:16.499Z,0.80
2022-10-01T12:39:55.882Z,0.70
2022-10-01T12:42:38.564Z,1.00
2022-10-01T12:45:14.444Z,0.60
2022-10-01T12:47:47.132Z,0.70
2022-10-01T12:50:26.092Z,0.70
2022-10-01T12:53:05.040Z,0.90
2022-10-01T12:55:46.317Z,0.93
2022-10-01T12:58:21.003Z,0.70
2022-10-01T13:00:56.287Z,1.10
2022-10-01T13:03:42.581Z,0.90
2022-10-01T13:06:21.438Z,0.87
2022-10-01T13:08:58.633Z,0.93
2022-10-01T13:11:38.564Z,0.90
2022-10-01T13:14:11.542Z,1.00
2022-10-01T13:16:42.960Z,1.10
2022-10-01T13:19:15.661Z,1.27
2022-10-01T13:21:56.528Z,1.10
2022-10-01T13:24:30.095Z,0.80
2022-10-01T13:27:04.636Z,0.80
2022-10-01T13:29:45.240Z,1.70
2022-10-01T13:32:27.301Z,1.90
2022-10-01T13:34:54.701Z,1.40
2022-10-01T13:37:32.899Z,0.90
2022-10-01T13:40:00.095Z,1.00
2022-10-01T13:42:30.269Z,0.97
2022-10-01T13:44:58.598Z,1.90
2022-10-01T13:47:26.284Z,1.27
2022-10-01T13:49:59.307Z,0.70
2022-10-01T13:52:26.065Z,0.80
2022-10-01T13:54:55.190Z,1.10
2022-10-01T13:57:32.425Z,1.20
2022-10-01T14:00:01.376Z,0.73
2022-10-01T14:02:32.448Z,0.50
2022-10-01T14:05:17.753Z,0.70
2022-10-01T14:07:47.640Z,1.33
2022-10-01T14:10:16.311Z,1.00
2022-10-01T14:12:47.067Z,0.87
2022-10-01T14:15:17.306Z,0.70
2022-10-01T14:17:45.678Z,1.00
2022-10-01T14:20:17.675Z,0.63
2022-10-01T14:23:02.135Z,1.10
2022-10-01T14:25:37.848Z,1.00
2022-10-01T14:28:33.903Z,1.10
2022-10-01T14:31:07.153Z,1.40
2022-10-01T14:33:50.702Z,1.43
2022-10-01T14:36:18.976Z,1.00
2022-10-01T14:38:45.518Z,1.10
2022-10-01T14:41:17.787Z,0.80
2022-10-01T14:43:46.283Z,0.73
2022-10-01T14:46:15.625Z,0.67
2022-10-01T14:48:43.006Z,0.60
2022-10-01T14:51:24.440Z,0.60
2022-10-01T14:53:52.220Z,0.60
2022-10-01T14:56:20.073Z,0.80
2022-10-01T14:58:53.162Z,0.50
2022-10-01T15:01:21.223Z,0.57
2022-10-01T15:03:48.893Z,0.97
2022-10-01T15:06:18.203Z,0.80
2022-10-01T15:08:46.194Z,0.90
2022-10-01T15:11:16.189Z,0.60
2022-10-01T15:13:44.593Z,0.67
2022-10-01T15:16:16.195Z,0.60
2022-10-01T15:18:46.785Z,0.60
2022-10-01T15:21:18.151Z,0.77
2022-10-01T15:23:45.822Z,0.57
2022-10-01T15:26:18.002Z,0.57
2022-10-01T15:28:44.527Z,0.50
2022-10-01T15:31:11.118Z,0.70
2022-10-01T15:33:40.706Z,0.60
2022-10-01T15:36:12.201Z,0.80
2022-10-01T15:38:41.675Z,0.50
2022-10-01T15:41:30.959Z,0.60
2022-10-01T15:44:02.577Z,0.90
2022-10-01T15:46:30.392Z,1.17
2022-10-01T15:49:18.177Z,1.20
2022-10-01T15:51:49.056Z,1.03
2022-10-01T15:54:15.645Z,0.57
2022-10-01T15:56:47.312Z,0.90
2022-10-01T15:59:17.354Z,1.10
2022-10-01T16:01:44.192Z,0.70
2022-10-01T16:04:12.363Z,0.90
2022-10-01T16:06:43.011Z,0.80
2022-10-01T16:09:14.663Z,0.70
2022-10-01T16:11:53.139Z,0.60
2022-10-01T16:14:23.692Z,1.30
2022-10-01T16:16:50.277Z,0.80
2022-10-01T16:19:23.098Z,0.80
2022-10-01T16:22:15.690Z,0.63
2022-10-01T16:24:44.883Z,1.10
2022-10-01T16:27:15.184Z,0.80
2022-10-01T16:29:41.858Z,0.80
2022-10-01T16:32:12.765Z,0.70
2022-10-01T16:34:39.266Z,1.03
2022-10-01T16:37:06.380Z,0.67
2022-10-01T16:39:34.214Z,0.70
2022-10-01T16:42:22.216Z,0.70
2022-10-01T16:44:47.454Z,1.00
2022-10-01T16:47:13.975Z,0.80
2022-10-01T16:49:40.499Z,0.80
2022-10-01T16:52:06.991Z,0.60
2022-10-01T16:54:34.851Z,0.70
2022-10-01T16:57:01.352Z,0.70
2022-10-01T16:59:27.883Z,0.67
2022-10-01T17:01:55.167Z,0.70
2022-10-01T17:04:22.546Z,0.83
2022-10-01T17:06:49.416Z,0.90
2022-10-01T17:09:15.921Z,0.63
2022-10-01T17:11:43.962Z,0.90
2022-10-01T17:14:16.454Z,0.80
2022-10-01T17:16:43.035Z,0.77
2022-10-01T17:19:09.814Z,0.80
2022-10-01T17:21:36.529Z,0.70
2022-10-01T17:24:03.065Z,0.70
2022-10-01T17:26:29.570Z,0.70
2022-10-01T17:28:57.453Z,0.70
2022-10-01T17:31:24.134Z,0.70
2022-10-01T17:33:50.717Z,1.07
2022-10-01T17:36:17.231Z,1.70
2022-10-01T17:38:43.704Z,1.30
2022-10-01T17:41:10.183Z,1.30
2022-10-01T17:43:36.676Z,1.10
2022-10-01T17:46:04.856Z,1.33
2022-10-01T17:48:31.396Z,0.90
2022-10-01T17:50:59.449Z,1.00
2022-10-01T17:53:28.522Z,0.93
2022-10-01T17:55:59.641Z,0.90
2022-10-01T17:58:26.202Z,1.07
2022-10-01T18:00:52.743Z,1.30
2022-10-01T18:03:20.678Z,1.30
2022-10-01T18:05:47.235Z,2.40
2022-10-01T18:08:13.844Z,1.00
2022-10-01T18:10:40.484Z,1.10
2022-10-01T18:13:07.249Z,1.07
2022-10-01T18:15:33.785Z,0.70
2022-10-01T18:20:48.177Z,1.00
2022-10-01T18:23:14.710Z,0.80
2022-10-01T18:25:41.444Z,1.10
2022-10-01T18:28:07.959Z,0.77
2022-10-01T18:30:34.462Z,0.97
2022-10-01T18:33:02.202Z,0.90
2022-10-01T18:35:31.485Z,0.80
2022-10-01T18:38:02.596Z,0.90
2022-10-01T18:40:32.198Z,0.93
2022-10-01T18:43:04.186Z,1.00
2022-10-01T18:45:48.129Z,0.93
2022-10-01T18:48:42.483Z,0.77
2022-10-01T18:51:19.109Z,1.10
2022-10-01T18:54:12.089Z,1.50
2022-10-01T18:56:45.043Z,1.50
2022-10-01T18:59:27.912Z,1.10
2022-10-01T19:02:16.026Z,1.10
2022-10-01T19:05:19.117Z,1.40
2022-10-01T19:07:56.359Z,1.20
2022-10-01T19:10:32.864Z,1.17
2022-10-01T19:13:08.027Z,1.20
2022-10-01T19:15:45.467Z,1.20
2022-10-01T19:18:26.733Z,1.10
2022-10-01T19:21:07.121Z,1.97
2022-10-01T19:24:07.298Z,1.73
2022-10-01T19:26:42.562Z,1.20
2022-10-01T19:29:21.535Z,1.30
2022-10-01T19:31:54.362Z,0.90
2022-10-01T19:34:26.152Z,1.20
2022-10-01T19:36:57.135Z,1.30
2022-10-01T19:39:26.911Z,1.17
2022-10-01T19:41:58.829Z,1.00
2022-10-01T19:44:29.256Z,1.00
2022-10-01T19:47:00.854Z,1.10
2022-10-01T19:49:32.809Z,1.10
2022-10-01T19:52:01.178Z,1.23
2022-10-01T19:54:32.130Z,1.00
2022-10-01T19:57:05.525Z,1.10
2022-10-01T19:59:32.150Z,1.10
2022-10-01T20:02:05.520Z,0.87
2022-10-01T20:04:36.846Z,0.90
2022-10-01T20:07:08.063Z,1.00
2022-10-01T20:09:42.950Z,1.23
2022-10-01T20:12:18.118Z,1.00
2022-10-01T20:14:53.942Z,3.10
2022-10-01T20:17:27.264Z,2.73
2022-10-01T20:20:01.081Z,3.13
2022-10-01T20:22:35.181Z,1.60
2022-10-01T20:25:10.706Z,1.30
2022-10-01T20:27:49.321Z,1.37
2022-10-01T20:30:18.550Z,1.40
2022-10-01T20:32:52.848Z,1.23
2022-10-01T20:35:26.785Z,1.30
2022-10-01T20:38:00.131Z,0.93
2022-10-01T20:40:30.025Z,1.30
2022-10-01T20:43:04.568Z,1.10
2022-10-01T20:45:33.941Z,1.20
2022-10-01T20:48:04.547Z,1.27
2022-10-01T20:50:34.577Z,1.37
2022-10-01T20:53:12.715Z,1.10
2022-10-01T20:55:43.724Z,1.27
2022-10-01T20:58:17.641Z,1.30
2022-10-01T21:00:46.060Z,0.80
2022-10-01T21:03:20.934Z,1.00
2022-10-01T21:05:50.289Z,1.23
2022-10-01T21:08:38.555Z,1.37
2022-10-01T21:11:09.320Z,1.07
2022-10-01T21:13:43.373Z,1.10
2022-10-01T21:16:23.670Z,1.33
2022-10-01T21:19:02.716Z,1.20
2022-10-01T21:21:40.883Z,1.20
2022-10-01T21:24:33.645Z,1.13
2022-10-01T21:27:13.317Z,0.90
2022-10-01T21:30:02.674Z,0.90
2022-10-01T21:32:50.290Z,1.10
2022-10-01T21:35:25.352Z,1.30
2022-10-01T21:37:58.799Z,1.00
2022-10-01T21:40:32.788Z,0.93
2022-10-01T21:43:10.696Z,1.20
2022-10-01T21:45:43.245Z,0.90
2022-10-01T21:48:19.600Z,0.80
2022-10-01T21:50:55.223Z,1.07
2022-10-01T21:53:50.343Z,0.90
2022-10-01T21:56:30.274Z,1.00
2022-10-01T21:59:05.268Z,1.10
2022-10-01T22:01:48.779Z,1.03
2022-10-01T22:04:20.641Z,1.10
2022-10-01T22:06:52.021Z,1.10
2022-10-01T22:09:27.373Z,0.70
2022-10-01T22:11:58.127Z,1.00
2022-10-01T22:14:27.130Z,1.20
2022-10-01T22:16:57.272Z,1.00
2022-10-01T22:19:28.390Z,1.33
2022-10-01T22:22:01.659Z,0.97
2022-10-01T22:24:33.353Z,1.53
2022-10-01T22:27:08.490Z,1.03
2022-10-01T22:29:41.106Z,0.97
2022-10-01T22:32:11.717Z,1.30
2022-10-01T22:34:43.898Z,1.00
2022-10-01T22:37:16.081Z,1.47
2022-10-01T22:39:46.965Z,1.13
2022-10-01T22:42:17.340Z,2.00
2022-10-01T22:44:43.826Z,1.53
2022-10-01T22:47:29.894Z,1.50
2022-10-01T22:50:15.112Z,1.27
2022-10-01T22:52:54.065Z,1.30
2022-10-01T22:55:28.496Z,1.30
2022-10-01T22:58:17.433Z,1.57
2022-10-01T23:00:51.018Z,1.33
2022-10-01T23:03:30.648Z,1.30
2022-10-01T23:06:05.760Z,1.30
2022-10-01T23:08:40.776Z,1.40
2022-10-01T23:11:18.823Z,1.10
2022-10-01T23:13:53.748Z,1.20
2022-10-01T23:16:28.382Z,1.77
2022-10-01T23:19:03.932Z,1.60
2022-10-01T23:21:37.576Z,1.43
2022-10-01T23:24:16.748Z,1.23
2022-10-01T23:26:49.268Z,1.57
2022-10-01T23:29:29.179Z,1.10
2022-10-01T23:32:06.584Z,1.53
2022-10-01T23:34:45.317Z,1.17
2022-10-01T23:37:30.696Z,1.43
2022-10-01T23:40:01.203Z,1.67
2022-10-01T23:42:33.832Z,1.50
2022-10-01T23:45:13.056Z,1.13
2022-10-01T23:47:45.499Z,1.30
2022-10-01T23:50:20.933Z,1.60
2022-10-01T23:52:55.028Z,1.17
2022-10-01T23:55:35.678Z,1.10
2022-10-01T23:58:03.834Z,1.63
